createdAt,value
2017-12-28T00:04:13.319Z,991.4
2017-12-28T00:09:13.557Z,991.5
2017-12-28T00:14:13.463Z,991.4
2017-12-28T00:19:13.646Z,991.5
2017-12-28T00:24:13.351Z,991.4
2017-12-28T00:29:13.307Z,991.4
2017-12-28T00:34:13.337Z,991.5
2017-12-28T00:39:13.501Z,991.7
2017-12-28T00:44:13.311Z,991.8
2017-12-28T00:49:13.309Z,991.9
2017-12-28T00:54:13.312Z,992
2017-12-28T00:59:13.316Z,991.9
2017-12-28T01:04:13.352Z,992.1
2017-12-28T01:09:13.387Z,992.3
2017-12-28T01:14:13.294Z,992.2
2017-12-28T01:19:13.323Z,992.3
2017-12-28T01:24:13.428Z,992.4
2017-12-28T01:29:13.473Z,992.5
2017-12-28T01:34:13.497Z,992.6
2017-12-28T01:39:13.416Z,992.7
2017-12-28T01:44:13.328Z,992.7
2017-12-28T01:49:13.464Z,992.7
2017-12-28T01:54:13.334Z,992.9
2017-12-28T01:59:13.430Z,993
2017-12-28T02:04:13.477Z,993
2017-12-28T02:09:13.499Z,993.1
2017-12-28T02:14:13.546Z,993.1
2017-12-28T02:19:13.353Z,993.1
2017-12-28T02:24:13.353Z,993.3
2017-12-28T02:29:13.508Z,993.3
2017-12-28T02:34:13.425Z,993.4
2017-12-28T02:39:13.344Z,993.3
2017-12-28T02:44:13.351Z,993.3
2017-12-28T02:49:13.540Z,993.3
2017-12-28T02:54:13.451Z,993.5
2017-12-28T02:59:13.506Z,993.5
2017-12-28T03:04:13.512Z,993.5
2017-12-28T03:09:13.508Z,993.6
2017-12-28T03:14:13.473Z,993.5
2017-12-28T03:19:13.376Z,993.4
2017-12-28T03:24:13.461Z,993.6
2017-12-28T03:29:13.569Z,993.6
2017-12-28T03:34:13.521Z,993.7
2017-12-28T03:39:13.532Z,993.7
2017-12-28T03:44:13.566Z,993.8
2017-12-28T03:49:13.480Z,993.8
2017-12-28T03:54:13.528Z,993.9
2017-12-28T03:59:13.431Z,993.9
2017-12-28T04:04:13.679Z,993.9
2017-12-28T04:09:13.494Z,993.9
2017-12-28T04:14:13.531Z,994.1
2017-12-28T04:19:13.591Z,994.1
2017-12-28T04:24:13.619Z,994.3
2017-12-28T04:29:13.432Z,994.4
2017-12-28T04:34:13.548Z,994.4
2017-12-28T04:39:13.604Z,994.5
2017-12-28T04:44:13.521Z,994.5
2017-12-28T04:49:13.463Z,994.5
2017-12-28T04:54:13.428Z,994.6
2017-12-28T04:59:13.431Z,994.8
2017-12-28T05:04:13.443Z,994.9
2017-12-28T05:09:13.457Z,994.8
2017-12-28T05:14:13.465Z,994.8
2017-12-28T05:19:13.641Z,994.9
2017-12-28T05:24:13.559Z,995.2
2017-12-28T05:29:13.603Z,995.5
2017-12-28T05:34:13.470Z,995.4
2017-12-28T05:39:13.549Z,995.3
2017-12-28T05:44:13.563Z,995.4
2017-12-28T05:49:13.664Z,995.8
2017-12-28T05:54:13.490Z,995.7
2017-12-28T05:59:13.569Z,995.8
2017-12-28T06:04:13.582Z,995.9
2017-12-28T06:09:13.632Z,996.1
2017-12-28T06:14:13.533Z,996.2
2017-12-28T06:19:13.451Z,996.2
2017-12-28T06:24:13.495Z,996.2
2017-12-28T06:29:13.472Z,996.3
2017-12-28T06:34:13.560Z,996.4
2017-12-28T06:39:13.605Z,996.3
2017-12-28T06:44:13.660Z,996.2
2017-12-28T06:49:23.658Z,996.3
2017-12-28T06:54:13.504Z,996.3
2017-12-28T06:59:13.627Z,996.4
2017-12-28T07:04:13.652Z,996.4
2017-12-28T07:09:13.501Z,996.5
2017-12-28T07:14:13.600Z,996.5
2017-12-28T07:19:13.587Z,996.5
2017-12-28T07:24:13.515Z,996.6
2017-12-28T07:29:13.619Z,996.5
2017-12-28T07:34:13.634Z,996.5
2017-12-28T07:39:13.678Z,996.6
2017-12-28T07:44:13.536Z,996.6
2017-12-28T07:49:13.650Z,996.7
2017-12-28T07:54:13.678Z,996.6
2017-12-28T07:59:13.736Z,996.8
2017-12-28T08:04:13.746Z,996.8
2017-12-28T08:09:13.639Z,996.8
2017-12-28T08:14:13.575Z,997
2017-12-28T08:19:13.648Z,997.1
2017-12-28T08:24:13.550Z,997.2
2017-12-28T08:29:13.723Z,997.4
2017-12-28T08:34:23.618Z,997.2
2017-12-28T08:39:13.750Z,997.2
2017-12-28T08:44:13.774Z,997.2
2017-12-28T08:49:13.729Z,997.2
2017-12-28T08:54:13.628Z,997.2
2017-12-28T08:59:13.565Z,997.2
2017-12-28T09:04:13.685Z,997.1
2017-12-28T09:09:13.589Z,997.2
2017-12-28T09:14:13.649Z,997.3
2017-12-28T09:19:13.614Z,997.4
2017-12-28T09:24:13.622Z,997.3
2017-12-28T09:29:13.579Z,997.5
2017-12-28T09:34:13.651Z,997.5
2017-12-28T09:39:13.664Z,997.5
2017-12-28T09:44:13.583Z,997.6
2017-12-28T09:49:13.596Z,997.6
2017-12-28T09:54:13.629Z,997.6
2017-12-28T09:59:13.691Z,997.5
2017-12-28T10:04:13.761Z,997.5
2017-12-28T10:09:13.620Z,997.3
2017-12-28T10:14:13.621Z,997.3
2017-12-28T10:19:13.648Z,997.4
2017-12-28T10:24:13.647Z,997.4
2017-12-28T10:29:14.101Z,997.4
2017-12-28T10:34:16.555Z,997.4
2017-12-28T10:39:15.716Z,997.5
2017-12-28T10:44:13.622Z,997.7
2017-12-28T10:49:13.685Z,997.8
2017-12-28T10:54:13.629Z,997.8
2017-12-28T10:59:23.627Z,997.8
2017-12-28T11:04:24.051Z,997.7
2017-12-28T11:09:13.649Z,997.7
2017-12-28T11:14:14.264Z,997.8
2017-12-28T11:19:13.715Z,997.8
2017-12-28T11:24:15.997Z,997.9
2017-12-28T11:29:13.697Z,998
2017-12-28T11:34:13.819Z,998
2017-12-28T11:39:13.732Z,998.1
2017-12-28T11:44:23.895Z,997.9
2017-12-28T11:49:13.715Z,998.1
2017-12-28T11:54:13.707Z,998.1
2017-12-28T11:59:13.666Z,998.1
2017-12-28T12:04:13.732Z,998.1
2017-12-28T12:09:13.790Z,998.2
2017-12-28T12:14:13.776Z,998.3
2017-12-28T12:19:14.150Z,998.2
2017-12-28T12:24:13.678Z,998.3
2017-12-28T12:29:13.705Z,998.4
2017-12-28T12:34:13.996Z,998.4
2017-12-28T12:39:13.867Z,998.5
2017-12-28T12:44:13.882Z,998.6
2017-12-28T12:49:13.893Z,998.5
2017-12-28T12:54:13.771Z,998.6
2017-12-28T12:59:13.904Z,998.6
2017-12-28T13:04:13.860Z,998.6
2017-12-28T13:09:13.858Z,998.6
2017-12-28T13:14:13.805Z,998.6
2017-12-28T13:19:13.747Z,998.6
2017-12-28T13:24:13.969Z,998.7
2017-12-28T13:29:13.708Z,998.7
2017-12-28T13:34:13.772Z,998.9
2017-12-28T13:39:13.724Z,998.9
2017-12-28T13:44:13.824Z,998.9
2017-12-28T13:49:13.739Z,999.1
2017-12-28T13:54:13.924Z,999.3
2017-12-28T13:59:13.790Z,999.3
2017-12-28T14:04:14.207Z,999.4
2017-12-28T14:09:15.480Z,999.4
2017-12-28T14:14:13.795Z,999.5
2017-12-28T14:19:13.762Z,999.6
2017-12-28T14:24:13.737Z,999.7
2017-12-28T14:29:13.800Z,999.8
2017-12-28T14:34:13.972Z,999.9
2017-12-28T14:39:13.893Z,1000.1
2017-12-28T14:44:13.753Z,1000.3
2017-12-28T14:49:13.865Z,1000.3
2017-12-28T14:54:13.845Z,1000.5
2017-12-28T14:59:13.834Z,1000.6
2017-12-28T15:04:13.832Z,1000.7
2017-12-28T15:09:13.836Z,1001
2017-12-28T15:14:13.875Z,1001
2017-12-28T15:19:13.881Z,1001
2017-12-28T15:24:13.968Z,1001.2
2017-12-28T15:29:14.887Z,1001.4
2017-12-28T15:34:13.790Z,1001.6
2017-12-28T15:39:13.829Z,1001.8
2017-12-28T15:44:13.912Z,1001.8
2017-12-28T15:49:13.891Z,1002
2017-12-28T15:54:13.932Z,1002.1
2017-12-28T15:59:14.009Z,1002.2
2017-12-28T16:04:13.899Z,1002.3
2017-12-28T16:09:13.945Z,1002.4
2017-12-28T16:14:13.893Z,1002.4
2017-12-28T16:19:13.879Z,1002.6
2017-12-28T16:24:13.833Z,1002.7
2017-12-28T16:29:13.843Z,1002.8
2017-12-28T16:34:13.853Z,1002.9
2017-12-28T16:39:13.818Z,1003
2017-12-28T16:44:13.976Z,1003.1
2017-12-28T16:49:13.941Z,1003.3
2017-12-28T16:54:13.943Z,1003.4
2017-12-28T16:59:13.835Z,1003.4
2017-12-28T17:04:13.840Z,1003.5
2017-12-28T17:09:13.935Z,1003.6
2017-12-28T17:14:13.826Z,1003.7
2017-12-28T17:19:14.061Z,1003.8
2017-12-28T17:24:14.138Z,1004
2017-12-28T17:29:13.866Z,1004.1
2017-12-28T17:34:13.853Z,1004.2
2017-12-28T17:39:14.185Z,1004.3
2017-12-28T17:44:16.054Z,1004.5
2017-12-28T17:49:13.970Z,1004.7
2017-12-28T17:54:13.923Z,1004.7
2017-12-28T17:59:14.910Z,1004.7
2017-12-28T18:04:17.363Z,1004.9
2017-12-28T18:09:16.407Z,1004.9
2017-12-28T18:14:23.179Z,1005
2017-12-28T18:19:15.528Z,1005.2
2017-12-28T18:24:14.973Z,1005.2
2017-12-28T18:29:14.971Z,1005.3
2017-12-28T18:34:15.018Z,1005.4
2017-12-28T18:39:15.005Z,1005.5
2017-12-28T18:44:19.051Z,1005.6
2017-12-28T18:49:15.119Z,1005.7
2017-12-28T18:54:15.041Z,1005.8
2017-12-28T18:59:15.348Z,1005.9
2017-12-28T19:04:15.025Z,1006
2017-12-28T19:09:15.004Z,1006
2017-12-28T19:14:15.046Z,1006.1
2017-12-28T19:19:15.005Z,1006.2
2017-12-28T19:24:15.137Z,1006.4
2017-12-28T19:29:15.069Z,1006.3
2017-12-28T19:34:15.069Z,1006.4
2017-12-28T19:39:15.118Z,1006.4
2017-12-28T19:44:15.017Z,1006.6
2017-12-28T19:49:15.215Z,1006.6
2017-12-28T19:54:15.074Z,1006.6
2017-12-28T19:59:15.115Z,1006.7
2017-12-28T20:04:15.464Z,1006.7
2017-12-28T20:09:15.178Z,1006.7
2017-12-28T20:14:15.051Z,1006.8
2017-12-28T20:19:15.198Z,1007
2017-12-28T20:24:15.208Z,1007
2017-12-28T20:29:15.297Z,1007.1
2017-12-28T20:34:15.156Z,1007.2
2017-12-28T20:39:15.049Z,1007.2
2017-12-28T20:44:15.249Z,1007.3
2017-12-28T20:49:15.302Z,1007.3
2017-12-28T20:54:15.182Z,1007.4
2017-12-28T20:59:15.043Z,1007.4
2017-12-28T21:04:15.230Z,1007.5
2017-12-28T21:09:15.080Z,1007.6
2017-12-28T21:14:15.061Z,1007.7
2017-12-28T21:19:15.084Z,1007.7
2017-12-28T21:24:15.250Z,1007.7
2017-12-28T21:29:15.122Z,1007.9
2017-12-28T21:34:15.197Z,1008
2017-12-28T21:39:15.114Z,1008
2017-12-28T21:44:15.208Z,1008
2017-12-28T21:49:15.187Z,1008.1
2017-12-28T21:54:15.263Z,1008.1
2017-12-28T21:59:15.130Z,1008.3
2017-12-28T22:04:15.213Z,1008.4
2017-12-28T22:09:15.225Z,1008.5
2017-12-28T22:14:15.264Z,1008.6
2017-12-28T22:19:15.310Z,1008.7
2017-12-28T22:24:15.099Z,1008.7
2017-12-28T22:29:15.246Z,1008.8
2017-12-28T22:34:15.113Z,1009
2017-12-28T22:39:15.315Z,1009
2017-12-28T22:44:26.802Z,1009.2
2017-12-28T22:49:15.157Z,1009.2
2017-12-28T22:54:15.457Z,1009.2
2017-12-28T22:59:15.220Z,1009.5
2017-12-28T23:04:15.490Z,1009.4
2017-12-28T23:09:15.213Z,1009.5
2017-12-28T23:14:15.147Z,1009.7
2017-12-28T23:19:15.138Z,1009.8
2017-12-28T23:24:15.257Z,1009.9
2017-12-28T23:29:15.267Z,1010
2017-12-28T23:34:16.525Z,1010
2017-12-28T23:39:15.206Z,1010.1
2017-12-28T23:44:15.236Z,1010.1
2017-12-28T23:49:15.181Z,1010.1
2017-12-28T23:54:15.209Z,1010.3
2017-12-28T23:59:15.117Z,1010.3
